Impacts TAF Board INFO
FOR SITUATIONAL AWARENESS. NOT TO BE USED FOR FLIGHT PLANNING PURPOSES.
IDs:

KMCO - Orlando Intl, FL, US

Issued at 2348 UTC 19 Aug 2018
Updated at 0332 UTC 20 Aug 2018
Potential Impact None Slight Moderate High
Time<<20/16Z 20/17Z 20/18Z 20/19Z 20/20Z 20/21Z 20/22Z 20/23Z 21/00Z 21/01Z 21/02Z 21/03Z 21/04Z>>
Type PRVL PRVL PRVL PRVL PRVL
  [TEMP]  
PRVL
  [TEMP]  
PRVL
  [TEMP]  
PRVL PRVL PRVL PRVL PRVL PRVL
VIS >6 >6 >6 >6 >6
  [3]  
>6
  [3]  
>6
  [3]  
>6 >6 >6 >6 >6 >6
CIG -- -- -- -- --
  [30]  
--
  [30]  
--
  [30]  
-- -- 100 100 100 100
Cover SCT SCT SCT SCT SCT
  [BKN]  
SCT
  [BKN]  
SCT
  [BKN]  
SCT SCT BKN BKN BKN BKN
FltCat VFR VFR VFR VFR VFR
  [MVFR]  
VFR
  [MVFR]  
VFR
  [MVFR]  
VFR VFR VFR VFR VFR VFR
WX -- -- -- VCTS VCTS
  [TSRA]  
VCTS
  [TSRA]  
VCTS
  [TSRA]  
VCTS VCTS VCSH VCSH VCSH VCSH
WDir 160 160 160 150 150
[150]
150
[150]
150
[150]
150 150 160 160 160 160
WSpd 6 6 6 8 8
  [8]  
8
  [8]  
8
  [8]  
8 8 3 3 3 3
WGst -- -- -- -- --
  [--]  
--
  [--]  
--
  [--]  
-- -- -- -- -- --

Raw TAF
KMCO 192348Z 2000/2106 19008KT P6SM VCTS SCT030CB BKN080
  TEMPO 2000/2001 5SM -TSRA
  FM200200 VRB04KT P6SM SCT080 OVC200
  FM201400 16006KT P6SM SCT025
  FM201900 15008KT P6SM VCTS SCT040CB
  TEMPO 2020/2023 3SM TSRA BKN030CB
  FM210100 16003KT P6SM VCSH SCT050 BKN100


METAR Board
Radar Display
Forecast Discussion

FOR SITUATIONAL AWARENESS. NOT TO BE USED FOR FLIGHT PLANNING PURPOSES.